sensor_id;sensor_type;location;lat;lon;timestamp;temperature;humidity
26107;DHT22;13866;50.748;12.630;2022-12-17T00:00:07;-5.60;99.90
26107;DHT22;13866;50.748;12.630;2022-12-17T00:02:56;-5.60;99.90
26107;DHT22;13866;50.748;12.630;2022-12-17T00:05:40;-5.50;99.90
26107;DHT22;13866;50.748;12.630;2022-12-17T00:08:24;-5.50;99.90
26107;DHT22;13866;50.748;12.630;2022-12-17T00:11:08;-5.60;99.90
26107;DHT22;13866;50.748;12.630;2022-12-17T00:13:52;-5.60;99.90
26107;DHT22;13866;50.748;12.630;2022-12-17T00:16:36;-5.60;99.90
26107;DHT22;13866;50.748;12.630;2022-12-17T00:19:20;-5.60;99.90
26107;DHT22;13866;50.748;12.630;2022-12-17T00:22:04;-5.60;99.90
26107;DHT22;13866;50.748;12.630;2022-12-17T00:24:48;-5.60;99.90
26107;DHT22;13866;50.748;12.630;2022-12-17T00:27:32;-5.60;99.90
26107;DHT22;13866;50.748;12.630;2022-12-17T00:30:16;-5.60;99.90
26107;DHT22;13866;50.748;12.630;2022-12-17T00:33:01;-5.60;99.90
26107;DHT22;13866;50.748;12.630;2022-12-17T00:35:50;-5.60;99.90
26107;DHT22;13866;50.748;12.630;2022-12-17T00:38:35;-5.60;99.90
26107;DHT22;13866;50.748;12.630;2022-12-17T00:41:19;-5.60;99.90
26107;DHT22;13866;50.748;12.630;2022-12-17T00:44:03;-5.60;99.90
26107;DHT22;13866;50.748;12.630;2022-12-17T00:46:47;-5.60;99.90
26107;DHT22;13866;50.748;12.630;2022-12-17T00:49:31;-5.60;99.90
26107;DHT22;13866;50.748;12.630;2022-12-17T00:52:15;-5.50;99.90
26107;DHT22;13866;50.748;12.630;2022-12-17T00:54:59;-5.60;99.90
26107;DHT22;13866;50.748;12.630;2022-12-17T00:57:43;-5.50;99.90
26107;DHT22;13866;50.748;12.630;2022-12-17T01:00:27;-5.60;99.90
26107;DHT22;13866;50.748;12.630;2022-12-17T01:03:12;-5.60;99.90
26107;DHT22;13866;50.748;12.630;2022-12-17T01:05:59;-5.50;99.90
26107;DHT22;13866;50.748;12.630;2022-12-17T01:08:43;-5.60;99.90
26107;DHT22;13866;50.748;12.630;2022-12-17T01:11:28;-5.50;99.90
26107;DHT22;13866;50.748;12.630;2022-12-17T01:14:12;-5.50;99.90
26107;DHT22;13866;50.748;12.630;2022-12-17T01:16:56;-5.50;99.90
26107;DHT22;13866;50.748;12.630;2022-12-17T01:19:40;-5.50;99.90
26107;DHT22;13866;50.748;12.630;2022-12-17T01:22:24;-5.50;99.90
26107;DHT22;13866;50.748;12.630;2022-12-17T01:25:08;-5.50;99.90
26107;DHT22;13866;50.748;12.630;2022-12-17T01:27:52;-5.50;99.90
26107;DHT22;13866;50.748;12.630;2022-12-17T01:30:36;-5.40;99.90
26107;DHT22;13866;50.748;12.630;2022-12-17T01:33:20;-5.50;99.90
26107;DHT22;13866;50.748;12.630;2022-12-17T01:36:04;-5.50;99.90
26107;DHT22;13866;50.748;12.630;2022-12-17T01:38:48;-5.50;99.90
26107;DHT22;13866;50.748;12.630;2022-12-17T01:41:32;-5.50;99.90
26107;DHT22;13866;50.748;12.630;2022-12-17T01:47:29;-5.50;99.90
26107;DHT22;13866;50.748;12.630;2022-12-17T01:50:15;-5.50;99.90
26107;DHT22;13866;50.748;12.630;2022-12-17T01:53:02;-5.50;99.90
26107;DHT22;13866;50.748;12.630;2022-12-17T01:55:47;-5.50;99.90
26107;DHT22;13866;50.748;12.630;2022-12-17T01:58:32;-5.50;99.90
26107;DHT22;13866;50.748;12.630;2022-12-17T02:01:17;-5.40;99.90
26107;DHT22;13866;50.748;12.630;2022-12-17T02:04:01;-5.40;99.90
26107;DHT22;13866;50.748;12.630;2022-12-17T02:06:58;-5.40;99.90
26107;DHT22;13866;50.748;12.630;2022-12-17T02:09:58;-5.40;99.90
26107;DHT22;13866;50.748;12.630;2022-12-17T02:12:51;-5.40;99.90
26107;DHT22;13866;50.748;12.630;2022-12-17T02:15:49;-5.40;99.90
26107;DHT22;13866;50.748;12.630;2022-12-17T02:18:42;-5.50;99.90
26107;DHT22;13866;50.748;12.630;2022-12-17T02:21:28;-5.40;99.90
26107;DHT22;13866;50.748;12.630;2022-12-17T02:24:28;-5.40;99.90
26107;DHT22;13866;50.748;12.630;2022-12-17T02:27:14;-5.40;99.90
26107;DHT22;13866;50.748;12.630;2022-12-17T02:30:04;-5.40;99.90
26107;DHT22;13866;50.748;12.630;2022-12-17T02:32:50;-5.40;99.90
26107;DHT22;13866;50.748;12.630;2022-12-17T02:36:08;-5.40;99.90
26107;DHT22;13866;50.748;12.630;2022-12-17T02:38:52;-5.30;99.90
26107;DHT22;13866;50.748;12.630;2022-12-17T02:41:46;-5.40;99.90
26107;DHT22;13866;50.748;12.630;2022-12-17T02:44:32;-5.30;99.90
26107;DHT22;13866;50.748;12.630;2022-12-17T02:47:18;-5.30;99.90
26107;DHT22;13866;50.748;12.630;2022-12-17T02:50:03;-5.30;99.90
26107;DHT22;13866;50.748;12.630;2022-12-17T02:52:48;-5.30;99.90
26107;DHT22;13866;50.748;12.630;2022-12-17T02:55:34;-5.30;99.90
26107;DHT22;13866;50.748;12.630;2022-12-17T02:58:18;-5.30;99.90
26107;DHT22;13866;50.748;12.630;2022-12-17T03:01:03;-5.30;99.90
26107;DHT22;13866;50.748;12.630;2022-12-17T03:03:47;-5.30;99.90
26107;DHT22;13866;50.748;12.630;2022-12-17T03:06:31;-5.30;99.90
26107;DHT22;13866;50.748;12.630;2022-12-17T03:09:15;-5.30;99.90
26107;DHT22;13866;50.748;12.630;2022-12-17T03:11:59;-5.30;99.90
26107;DHT22;13866;50.748;12.630;2022-12-17T03:14:43;-5.20;99.90
26107;DHT22;13866;50.748;12.630;2022-12-17T03:17:28;-5.20;99.90
26107;DHT22;13866;50.748;12.630;2022-12-17T03:20:13;-5.30;99.90
26107;DHT22;13866;50.748;12.630;2022-12-17T03:23:02;-5.20;99.90
26107;DHT22;13866;50.748;12.630;2022-12-17T03:25:46;-5.20;99.90
26107;DHT22;13866;50.748;12.630;2022-12-17T03:28:30;-5.20;99.90
26107;DHT22;13866;50.748;12.630;2022-12-17T03:31:14;-5.20;99.90
26107;DHT22;13866;50.748;12.630;2022-12-17T03:33:58;-5.10;99.90
26107;DHT22;13866;50.748;12.630;2022-12-17T03:36:42;-5.10;99.90
26107;DHT22;13866;50.748;12.630;2022-12-17T03:39:26;-5.10;99.90
26107;DHT22;13866;50.748;12.630;2022-12-17T03:42:10;-5.10;99.90
26107;DHT22;13866;50.748;12.630;2022-12-17T03:44:54;-5.10;99.90
26107;DHT22;13866;50.748;12.630;2022-12-17T03:47:38;-5.10;99.90
26107;DHT22;13866;50.748;12.630;2022-12-17T03:50:22;-5.10;99.90
26107;DHT22;13866;50.748;12.630;2022-12-17T03:53:06;-5.10;99.90
26107;DHT22;13866;50.748;12.630;2022-12-17T03:55:50;-5.10;99.90
26107;DHT22;13866;50.748;12.630;2022-12-17T03:58:34;-5.10;99.90
26107;DHT22;13866;50.748;12.630;2022-12-17T04:01:18;-5.10;99.90
26107;DHT22;13866;50.748;12.630;2022-12-17T04:04:02;-5.10;99.90
26107;DHT22;13866;50.748;12.630;2022-12-17T04:06:46;-5.10;99.90
26107;DHT22;13866;50.748;12.630;2022-12-17T04:09:30;-5.00;99.90
26107;DHT22;13866;50.748;12.630;2022-12-17T04:12:14;-5.10;99.90
26107;DHT22;13866;50.748;12.630;2022-12-17T04:14:58;-5.00;99.90
26107;DHT22;13866;50.748;12.630;2022-12-17T04:17:41;-5.00;99.90
26107;DHT22;13866;50.748;12.630;2022-12-17T04:20:25;-5.00;99.90
26107;DHT22;13866;50.748;12.630;2022-12-17T04:23:09;-5.00;99.90
26107;DHT22;13866;50.748;12.630;2022-12-17T04:25:53;-5.00;99.90
26107;DHT22;13866;50.748;12.630;2022-12-17T04:28:37;-5.00;99.90
26107;DHT22;13866;50.748;12.630;2022-12-17T04:31:21;-5.00;99.90
26107;DHT22;13866;50.748;12.630;2022-12-17T04:34:05;-5.00;99.90
26107;DHT22;13866;50.748;12.630;2022-12-17T04:36:49;-5.00;99.90
26107;DHT22;13866;50.748;12.630;2022-12-17T04:39:33;-5.00;99.90
26107;DHT22;13866;50.748;12.630;2022-12-17T04:42:17;-5.00;99.90
26107;DHT22;13866;50.748;12.630;2022-12-17T04:45:01;-5.00;99.90
26107;DHT22;13866;50.748;12.630;2022-12-17T04:47:45;-5.00;99.90
26107;DHT22;13866;50.748;12.630;2022-12-17T04:50:29;-5.00;99.90
26107;DHT22;13866;50.748;12.630;2022-12-17T04:53:13;-5.00;99.90
26107;DHT22;13866;50.748;12.630;2022-12-17T04:55:57;-4.90;99.90
26107;DHT22;13866;50.748;12.630;2022-12-17T04:58:41;-5.00;99.90
26107;DHT22;13866;50.748;12.630;2022-12-17T05:01:26;-4.90;99.90
26107;DHT22;13866;50.748;12.630;2022-12-17T05:04:11;-4.90;99.90
26107;DHT22;13866;50.748;12.630;2022-12-17T05:06:54;-4.90;99.90
26107;DHT22;13866;50.748;12.630;2022-12-17T05:09:38;-4.90;99.90
26107;DHT22;13866;50.748;12.630;2022-12-17T05:12:23;-4.90;99.90
26107;DHT22;13866;50.748;12.630;2022-12-17T05:15:07;-4.90;99.90
26107;DHT22;13866;50.748;12.630;2022-12-17T05:17:51;-4.90;99.90
26107;DHT22;13866;50.748;12.630;2022-12-17T05:20:35;-4.80;99.90
26107;DHT22;13866;50.748;12.630;2022-12-17T05:23:18;-4.80;99.90
26107;DHT22;13866;50.748;12.630;2022-12-17T05:26:21;-4.80;99.90
26107;DHT22;13866;50.748;12.630;2022-12-17T05:29:05;-4.80;99.90
26107;DHT22;13866;50.748;12.630;2022-12-17T05:31:50;-4.80;99.90
26107;DHT22;13866;50.748;12.630;2022-12-17T05:34:34;-4.80;99.90
26107;DHT22;13866;50.748;12.630;2022-12-17T05:37:18;-4.80;99.90
26107;DHT22;13866;50.748;12.630;2022-12-17T05:40:03;-4.80;99.90
26107;DHT22;13866;50.748;12.630;2022-12-17T05:42:55;-4.80;99.90
26107;DHT22;13866;50.748;12.630;2022-12-17T05:45:41;-4.80;99.90
26107;DHT22;13866;50.748;12.630;2022-12-17T05:48:25;-4.80;99.90
26107;DHT22;13866;50.748;12.630;2022-12-17T05:51:09;-4.80;99.90
26107;DHT22;13866;50.748;12.630;2022-12-17T05:53:53;-4.80;99.90
26107;DHT22;13866;50.748;12.630;2022-12-17T05:56:37;-4.70;99.90
26107;DHT22;13866;50.748;12.630;2022-12-17T05:59:21;-4.70;99.90
26107;DHT22;13866;50.748;12.630;2022-12-17T06:02:05;-4.70;99.90
26107;DHT22;13866;50.748;12.630;2022-12-17T06:04:50;-4.70;99.90
26107;DHT22;13866;50.748;12.630;2022-12-17T06:07:34;-4.70;99.90
26107;DHT22;13866;50.748;12.630;2022-12-17T06:10:18;-4.70;99.90
26107;DHT22;13866;50.748;12.630;2022-12-17T06:13:02;-4.70;99.90
26107;DHT22;13866;50.748;12.630;2022-12-17T06:15:50;-4.70;99.90
26107;DHT22;13866;50.748;12.630;2022-12-17T06:18:34;-4.70;99.90
26107;DHT22;13866;50.748;12.630;2022-12-17T06:21:18;-4.60;99.90
26107;DHT22;13866;50.748;12.630;2022-12-17T06:24:03;-4.60;99.90
26107;DHT22;13866;50.748;12.630;2022-12-17T06:26:47;-4.60;99.90
26107;DHT22;13866;50.748;12.630;2022-12-17T06:29:31;-4.60;99.90
26107;DHT22;13866;50.748;12.630;2022-12-17T06:32:15;-4.60;99.90
26107;DHT22;13866;50.748;12.630;2022-12-17T06:34:59;-4.60;99.90
26107;DHT22;13866;50.748;12.630;2022-12-17T06:37:43;-4.60;99.90
26107;DHT22;13866;50.748;12.630;2022-12-17T06:40:27;-4.60;99.90
26107;DHT22;13866;50.748;12.630;2022-12-17T06:43:11;-4.60;99.90
26107;DHT22;13866;50.748;12.630;2022-12-17T06:45:55;-4.60;99.90
26107;DHT22;13866;50.748;12.630;2022-12-17T06:48:39;-4.50;99.90
26107;DHT22;13866;50.748;12.630;2022-12-17T06:51:23;-4.50;99.90
26107;DHT22;13866;50.748;12.630;2022-12-17T06:54:07;-4.50;99.90
26107;DHT22;13866;50.748;12.630;2022-12-17T06:56:51;-4.50;99.90
26107;DHT22;13866;50.748;12.630;2022-12-17T06:59:35;-4.50;99.90
26107;DHT22;13866;50.748;12.630;2022-12-17T07:02:19;-4.50;99.90
26107;DHT22;13866;50.748;12.630;2022-12-17T07:05:03;-4.50;99.90
26107;DHT22;13866;50.748;12.630;2022-12-17T07:07:47;-4.50;99.90
26107;DHT22;13866;50.748;12.630;2022-12-17T07:10:31;-4.50;99.90
26107;DHT22;13866;50.748;12.630;2022-12-17T07:13:15;-4.50;99.90
26107;DHT22;13866;50.748;12.630;2022-12-17T07:15:59;-4.40;99.90
26107;DHT22;13866;50.748;12.630;2022-12-17T07:18:43;-4.40;99.90
26107;DHT22;13866;50.748;12.630;2022-12-17T07:21:28;-4.40;99.90
26107;DHT22;13866;50.748;12.630;2022-12-17T07:24:12;-4.40;99.90
26107;DHT22;13866;50.748;12.630;2022-12-17T07:26:56;-4.40;99.90
26107;DHT22;13866;50.748;12.630;2022-12-17T07:29:40;-4.40;99.90
26107;DHT22;13866;50.748;12.630;2022-12-17T07:32:24;-4.40;99.90
26107;DHT22;13866;50.748;12.630;2022-12-17T07:35:08;-4.30;99.90
26107;DHT22;13866;50.748;12.630;2022-12-17T07:37:59;-4.30;99.90
26107;DHT22;13866;50.748;12.630;2022-12-17T07:40:44;-4.30;99.90
26107;DHT22;13866;50.748;12.630;2022-12-17T07:43:28;-4.30;99.90
26107;DHT22;13866;50.748;12.630;2022-12-17T07:46:12;-4.20;99.90
26107;DHT22;13866;50.748;12.630;2022-12-17T07:48:56;-4.20;99.90
26107;DHT22;13866;50.748;12.630;2022-12-17T07:51:40;-4.20;99.90
26107;DHT22;13866;50.748;12.630;2022-12-17T07:54:24;-4.20;99.90
26107;DHT22;13866;50.748;12.630;2022-12-17T07:57:08;-4.20;99.90
26107;DHT22;13866;50.748;12.630;2022-12-17T07:59:52;-4.10;99.90
26107;DHT22;13866;50.748;12.630;2022-12-17T08:03:09;-4.10;99.90
26107;DHT22;13866;50.748;12.630;2022-12-17T08:05:56;-4.10;99.90
26107;DHT22;13866;50.748;12.630;2022-12-17T08:08:40;-4.10;99.90
26107;DHT22;13866;50.748;12.630;2022-12-17T08:11:25;-4.00;99.90
26107;DHT22;13866;50.748;12.630;2022-12-17T08:14:09;-4.00;99.90
26107;DHT22;13866;50.748;12.630;2022-12-17T08:16:53;-4.00;99.90
26107;DHT22;13866;50.748;12.630;2022-12-17T08:19:37;-4.00;99.90
26107;DHT22;13866;50.748;12.630;2022-12-17T08:22:21;-4.00;99.90
26107;DHT22;13866;50.748;12.630;2022-12-17T08:25:05;-3.90;99.90
26107;DHT22;13866;50.748;12.630;2022-12-17T08:27:58;-3.90;99.90
26107;DHT22;13866;50.748;12.630;2022-12-17T08:30:46;-3.90;99.90
26107;DHT22;13866;50.748;12.630;2022-12-17T08:33:31;-3.90;99.90
26107;DHT22;13866;50.748;12.630;2022-12-17T08:36:15;-3.90;99.90
26107;DHT22;13866;50.748;12.630;2022-12-17T08:38:59;-3.90;99.90
26107;DHT22;13866;50.748;12.630;2022-12-17T08:41:43;-3.90;99.90
26107;DHT22;13866;50.748;12.630;2022-12-17T08:44:26;-3.90;99.90
26107;DHT22;13866;50.748;12.630;2022-12-17T08:47:10;-3.80;99.90
26107;DHT22;13866;50.748;12.630;2022-12-17T08:49:54;-3.70;99.90
26107;DHT22;13866;50.748;12.630;2022-12-17T08:52:39;-3.70;99.90
26107;DHT22;13866;50.748;12.630;2022-12-17T08:55:22;-3.70;99.90
26107;DHT22;13866;50.748;12.630;2022-12-17T08:58:07;-3.70;99.90
26107;DHT22;13866;50.748;12.630;2022-12-17T09:00:51;-3.70;99.90
26107;DHT22;13866;50.748;12.630;2022-12-17T09:03:35;-3.70;99.90
26107;DHT22;13866;50.748;12.630;2022-12-17T09:06:19;-3.60;99.90
26107;DHT22;13866;50.748;12.630;2022-12-17T09:09:03;-3.60;99.90
26107;DHT22;13866;50.748;12.630;2022-12-17T09:11:52;-3.50;99.90
26107;DHT22;13866;50.748;12.630;2022-12-17T09:14:36;-3.50;99.90
26107;DHT22;13866;50.748;12.630;2022-12-17T09:17:20;-3.40;99.90
26107;DHT22;13866;50.748;12.630;2022-12-17T09:20:04;-3.40;99.90
26107;DHT22;13866;50.748;12.630;2022-12-17T09:22:48;-3.30;99.90
26107;DHT22;13866;50.748;12.630;2022-12-17T09:25:32;-3.30;99.90
26107;DHT22;13866;50.748;12.630;2022-12-17T09:28:16;-3.30;99.90
26107;DHT22;13866;50.748;12.630;2022-12-17T09:31:00;-3.20;99.90
26107;DHT22;13866;50.748;12.630;2022-12-17T09:33:45;-3.10;99.90
26107;DHT22;13866;50.748;12.630;2022-12-17T09:39:01;-3.10;99.90
26107;DHT22;13866;50.748;12.630;2022-12-17T09:42:06;-3.00;99.90
26107;DHT22;13866;50.748;12.630;2022-12-17T09:48:09;-2.90;99.90
26107;DHT22;13866;50.748;12.630;2022-12-17T09:50:54;-2.90;99.90
26107;DHT22;13866;50.748;12.630;2022-12-17T09:53:41;-2.80;99.90
26107;DHT22;13866;50.748;12.630;2022-12-17T09:56:28;-2.80;99.90
26107;DHT22;13866;50.748;12.630;2022-12-17T09:59:36;-2.70;99.90
26107;DHT22;13866;50.748;12.630;2022-12-17T10:02:25;-2.60;99.90
26107;DHT22;13866;50.748;12.630;2022-12-17T10:05:22;-2.50;99.90
26107;DHT22;13866;50.748;12.630;2022-12-17T10:08:12;-2.40;99.90
26107;DHT22;13866;50.748;12.630;2022-12-17T10:11:08;-2.40;99.90
26107;DHT22;13866;50.748;12.630;2022-12-17T10:13:53;-2.30;99.90
26107;DHT22;13866;50.748;12.630;2022-12-17T10:16:45;-2.30;99.90
26107;DHT22;13866;50.748;12.630;2022-12-17T10:19:31;-2.30;99.90
26107;DHT22;13866;50.748;12.630;2022-12-17T10:22:18;-2.20;99.90
26107;DHT22;13866;50.748;12.630;2022-12-17T10:25:23;-2.20;99.90
26107;DHT22;13866;50.748;12.630;2022-12-17T10:28:15;-2.30;99.90
26107;DHT22;13866;50.748;12.630;2022-12-17T10:31:00;-2.20;99.90
26107;DHT22;13866;50.748;12.630;2022-12-17T10:33:45;-2.20;99.90
26107;DHT22;13866;50.748;12.630;2022-12-17T10:36:29;-2.10;99.90
26107;DHT22;13866;50.748;12.630;2022-12-17T10:39:16;-2.10;99.90
26107;DHT22;13866;50.748;12.630;2022-12-17T10:42:01;-2.10;99.90
26107;DHT22;13866;50.748;12.630;2022-12-17T10:45:20;-2.20;99.90
26107;DHT22;13866;50.748;12.630;2022-12-17T10:48:15;-2.20;99.90
26107;DHT22;13866;50.748;12.630;2022-12-17T10:50:59;-2.10;99.90
26107;DHT22;13866;50.748;12.630;2022-12-17T10:53:49;-2.20;99.90
26107;DHT22;13866;50.748;12.630;2022-12-17T10:56:34;-2.10;99.90
26107;DHT22;13866;50.748;12.630;2022-12-17T10:59:34;-1.90;99.90
26107;DHT22;13866;50.748;12.630;2022-12-17T11:02:25;-1.90;99.90
26107;DHT22;13866;50.748;12.630;2022-12-17T11:05:30;-1.90;99.90
26107;DHT22;13866;50.748;12.630;2022-12-17T11:08:17;-1.90;99.90
26107;DHT22;13866;50.748;12.630;2022-12-17T11:11:04;-1.90;99.90
26107;DHT22;13866;50.748;12.630;2022-12-17T11:13:51;-1.90;99.90
26107;DHT22;13866;50.748;12.630;2022-12-17T11:16:47;-1.70;99.90
26107;DHT22;13866;50.748;12.630;2022-12-17T11:19:54;-1.40;99.90
26107;DHT22;13866;50.748;12.630;2022-12-17T11:22:41;-1.20;99.90
26107;DHT22;13866;50.748;12.630;2022-12-17T11:25:35;-1.20;99.90
26107;DHT22;13866;50.748;12.630;2022-12-17T11:28:27;-1.10;99.90
26107;DHT22;13866;50.748;12.630;2022-12-17T11:42:58;-1.50;99.90
26107;DHT22;13866;50.748;12.630;2022-12-17T11:58:39;-1.30;99.90
26107;DHT22;13866;50.748;12.630;2022-12-17T12:01:37;-1.20;99.90
26107;DHT22;13866;50.748;12.630;2022-12-17T12:07:53;-1.00;99.90
26107;DHT22;13866;50.748;12.630;2022-12-17T12:13:52;-1.10;99.90
26107;DHT22;13866;50.748;12.630;2022-12-17T12:16:51;-1.30;99.90
26107;DHT22;13866;50.748;12.630;2022-12-17T12:19:50;-1.40;99.90
26107;DHT22;13866;50.748;12.630;2022-12-17T12:23:17;-1.40;99.90
26107;DHT22;13866;50.748;12.630;2022-12-17T12:26:14;-1.40;99.90
26107;DHT22;13866;50.748;12.630;2022-12-17T12:35:15;-1.30;99.90
26107;DHT22;13866;50.748;12.630;2022-12-17T12:38:01;-1.20;99.90
26107;DHT22;13866;50.748;12.630;2022-12-17T12:40:54;-1.10;99.90
26107;DHT22;13866;50.748;12.630;2022-12-17T12:43:46;-1.10;99.90
26107;DHT22;13866;50.748;12.630;2022-12-17T12:46:44;-1.10;99.90
26107;DHT22;13866;50.748;12.630;2022-12-17T12:49:37;-1.20;99.90
26107;DHT22;13866;50.748;12.630;2022-12-17T12:52:25;-1.30;99.90
26107;DHT22;13866;50.748;12.630;2022-12-17T12:55:11;-1.40;99.90
26107;DHT22;13866;50.748;12.630;2022-12-17T12:57:59;-1.50;99.90
26107;DHT22;13866;50.748;12.630;2022-12-17T13:06:51;-1.70;99.90
26107;DHT22;13866;50.748;12.630;2022-12-17T13:12:09;-1.90;99.90
26107;DHT22;13866;50.748;12.630;2022-12-17T13:17:37;-1.90;99.90
26107;DHT22;13866;50.748;12.630;2022-12-17T13:20:25;-2.00;99.90
26107;DHT22;13866;50.748;12.630;2022-12-17T13:23:04;-1.90;99.90
26107;DHT22;13866;50.748;12.630;2022-12-17T13:25:30;-1.90;99.90
26107;DHT22;13866;50.748;12.630;2022-12-17T13:27:55;-1.80;99.90
26107;DHT22;13866;50.748;12.630;2022-12-17T13:30:32;-1.90;99.90
26107;DHT22;13866;50.748;12.630;2022-12-17T13:33:23;-1.90;99.90
26107;DHT22;13866;50.748;12.630;2022-12-17T13:41:29;-2.10;99.90
26107;DHT22;13866;50.748;12.630;2022-12-17T13:44:32;-2.10;99.90
26107;DHT22;13866;50.748;12.630;2022-12-17T13:46:51;-2.10;99.90
26107;DHT22;13866;50.748;12.630;2022-12-17T13:51:44;-2.30;99.90
26107;DHT22;13866;50.748;12.630;2022-12-17T13:54:17;-2.40;99.90
26107;DHT22;13866;50.748;12.630;2022-12-17T13:56:44;-2.40;99.90
26107;DHT22;13866;50.748;12.630;2022-12-17T13:59:21;-2.40;99.90
26107;DHT22;13866;50.748;12.630;2022-12-17T14:01:50;-2.50;99.90
26107;DHT22;13866;50.748;12.630;2022-12-17T14:04:21;-2.50;99.90
26107;DHT22;13866;50.748;12.630;2022-12-17T14:06:47;-2.50;99.90
26107;DHT22;13866;50.748;12.630;2022-12-17T14:09:18;-2.60;99.90
26107;DHT22;13866;50.748;12.630;2022-12-17T14:11:45;-2.60;99.90
26107;DHT22;13866;50.748;12.630;2022-12-17T14:14:35;-2.60;99.90
26107;DHT22;13866;50.748;12.630;2022-12-17T14:17:01;-2.70;99.90
26107;DHT22;13866;50.748;12.630;2022-12-17T14:19:27;-2.80;99.90
26107;DHT22;13866;50.748;12.630;2022-12-17T14:21:54;-2.80;99.90
26107;DHT22;13866;50.748;12.630;2022-12-17T14:24:23;-2.80;99.90
26107;DHT22;13866;50.748;12.630;2022-12-17T14:26:59;-2.90;99.90
26107;DHT22;13866;50.748;12.630;2022-12-17T14:29:28;-3.00;99.90
26107;DHT22;13866;50.748;12.630;2022-12-17T14:31:59;-3.10;99.90
26107;DHT22;13866;50.748;12.630;2022-12-17T14:34:25;-3.10;99.90
26107;DHT22;13866;50.748;12.630;2022-12-17T14:36:58;-3.10;99.90
26107;DHT22;13866;50.748;12.630;2022-12-17T14:39:29;-3.20;99.90
26107;DHT22;13866;50.748;12.630;2022-12-17T14:41:58;-3.20;99.90
26107;DHT22;13866;50.748;12.630;2022-12-17T14:44:52;-3.30;99.90
26107;DHT22;13866;50.748;12.630;2022-12-17T14:57:53;-4.10;99.90
26107;DHT22;13866;50.748;12.630;2022-12-17T15:00:30;-4.40;99.90
26107;DHT22;13866;50.748;12.630;2022-12-17T15:02:55;-4.40;99.90
26107;DHT22;13866;50.748;12.630;2022-12-17T15:05:21;-4.40;99.90
26107;DHT22;13866;50.748;12.630;2022-12-17T15:07:46;-4.50;99.90
26107;DHT22;13866;50.748;12.630;2022-12-17T15:10:15;-4.60;99.90
26107;DHT22;13866;50.748;12.630;2022-12-17T15:12:42;-4.60;99.90
26107;DHT22;13866;50.748;12.630;2022-12-17T15:15:12;-4.70;99.90
26107;DHT22;13866;50.748;12.630;2022-12-17T15:17:38;-4.70;99.90
26107;DHT22;13866;50.748;12.630;2022-12-17T15:20:04;-4.60;99.90
26107;DHT22;13866;50.748;12.630;2022-12-17T15:22:29;-4.60;99.90
26107;DHT22;13866;50.748;12.630;2022-12-17T15:24:55;-4.60;99.90
26107;DHT22;13866;50.748;12.630;2022-12-17T15:27:20;-4.70;99.90
26107;DHT22;13866;50.748;12.630;2022-12-17T15:29:46;-4.70;99.90
26107;DHT22;13866;50.748;12.630;2022-12-17T15:32:19;-4.60;99.90
26107;DHT22;13866;50.748;12.630;2022-12-17T15:34:45;-4.60;99.90
26107;DHT22;13866;50.748;12.630;2022-12-17T15:37:11;-4.60;99.90
26107;DHT22;13866;50.748;12.630;2022-12-17T15:39:37;-4.60;99.90
26107;DHT22;13866;50.748;12.630;2022-12-17T15:42:02;-4.60;99.90
26107;DHT22;13866;50.748;12.630;2022-12-17T15:44:46;-4.70;99.90
26107;DHT22;13866;50.748;12.630;2022-12-17T15:47:12;-4.70;99.90
26107;DHT22;13866;50.748;12.630;2022-12-17T15:49:37;-4.70;99.90
26107;DHT22;13866;50.748;12.630;2022-12-17T15:52:03;-4.60;99.90
26107;DHT22;13866;50.748;12.630;2022-12-17T15:54:28;-4.50;99.90
26107;DHT22;13866;50.748;12.630;2022-12-17T15:56:54;-4.50;99.90
26107;DHT22;13866;50.748;12.630;2022-12-17T15:59:20;-4.50;99.90
26107;DHT22;13866;50.748;12.630;2022-12-17T16:01:46;-4.60;99.90
26107;DHT22;13866;50.748;12.630;2022-12-17T16:04:12;-4.50;99.90
26107;DHT22;13866;50.748;12.630;2022-12-17T16:06:37;-4.40;99.90
26107;DHT22;13866;50.748;12.630;2022-12-17T16:09:03;-4.40;99.90
26107;DHT22;13866;50.748;12.630;2022-12-17T16:11:28;-4.40;99.90
26107;DHT22;13866;50.748;12.630;2022-12-17T16:13:54;-4.50;99.90
26107;DHT22;13866;50.748;12.630;2022-12-17T16:16:21;-4.60;99.90
26107;DHT22;13866;50.748;12.630;2022-12-17T16:18:46;-4.70;99.90
26107;DHT22;13866;50.748;12.630;2022-12-17T16:21:12;-4.70;99.90
26107;DHT22;13866;50.748;12.630;2022-12-17T16:23:38;-4.80;99.90
26107;DHT22;13866;50.748;12.630;2022-12-17T16:26:04;-4.70;99.90
26107;DHT22;13866;50.748;12.630;2022-12-17T16:28:30;-4.80;99.90
26107;DHT22;13866;50.748;12.630;2022-12-17T16:31:05;-5.00;99.90
26107;DHT22;13866;50.748;12.630;2022-12-17T16:33:33;-4.90;99.90
26107;DHT22;13866;50.748;12.630;2022-12-17T16:35:59;-4.80;99.90
26107;DHT22;13866;50.748;12.630;2022-12-17T16:38:25;-5.00;99.90
26107;DHT22;13866;50.748;12.630;2022-12-17T16:40:57;-5.00;99.90
26107;DHT22;13866;50.748;12.630;2022-12-17T16:43:23;-5.00;99.90
26107;DHT22;13866;50.748;12.630;2022-12-17T16:45:50;-5.10;99.90
26107;DHT22;13866;50.748;12.630;2022-12-17T16:48:16;-5.20;99.90
26107;DHT22;13866;50.748;12.630;2022-12-17T16:50:43;-5.20;99.90
26107;DHT22;13866;50.748;12.630;2022-12-17T16:53:09;-5.30;99.90
26107;DHT22;13866;50.748;12.630;2022-12-17T16:55:43;-5.30;99.90
26107;DHT22;13866;50.748;12.630;2022-12-17T16:58:11;-5.40;99.90
26107;DHT22;13866;50.748;12.630;2022-12-17T17:00:37;-5.40;99.90
26107;DHT22;13866;50.748;12.630;2022-12-17T17:03:04;-5.50;99.90
26107;DHT22;13866;50.748;12.630;2022-12-17T17:05:34;-5.40;99.90
26107;DHT22;13866;50.748;12.630;2022-12-17T17:08:01;-5.20;99.90
26107;DHT22;13866;50.748;12.630;2022-12-17T17:10:27;-5.10;99.90
26107;DHT22;13866;50.748;12.630;2022-12-17T17:12:54;-5.30;99.90
26107;DHT22;13866;50.748;12.630;2022-12-17T17:15:20;-5.40;99.90
26107;DHT22;13866;50.748;12.630;2022-12-17T17:17:47;-5.60;99.90
26107;DHT22;13866;50.748;12.630;2022-12-17T17:20:12;-5.60;99.90
26107;DHT22;13866;50.748;12.630;2022-12-17T17:22:38;-5.70;99.90
26107;DHT22;13866;50.748;12.630;2022-12-17T17:25:04;-5.70;99.90
26107;DHT22;13866;50.748;12.630;2022-12-17T17:27:30;-5.70;99.90
26107;DHT22;13866;50.748;12.630;2022-12-17T17:29:56;-5.80;99.90
26107;DHT22;13866;50.748;12.630;2022-12-17T17:32:23;-5.90;99.90
26107;DHT22;13866;50.748;12.630;2022-12-17T17:34:48;-6.00;99.90
26107;DHT22;13866;50.748;12.630;2022-12-17T17:37:14;-6.00;99.90
26107;DHT22;13866;50.748;12.630;2022-12-17T17:39:39;-6.10;99.90
26107;DHT22;13866;50.748;12.630;2022-12-17T17:42:05;-6.10;99.90
26107;DHT22;13866;50.748;12.630;2022-12-17T17:44:31;-6.10;99.90
26107;DHT22;13866;50.748;12.630;2022-12-17T17:46:56;-6.20;99.90
26107;DHT22;13866;50.748;12.630;2022-12-17T17:49:22;-6.20;99.90
26107;DHT22;13866;50.748;12.630;2022-12-17T17:51:48;-6.40;99.90
26107;DHT22;13866;50.748;12.630;2022-12-17T17:54:13;-6.40;99.90
26107;DHT22;13866;50.748;12.630;2022-12-17T17:56:40;-6.50;99.90
26107;DHT22;13866;50.748;12.630;2022-12-17T17:59:09;-6.50;99.90